Time;durP1;ratioP1;P1;durP2;ratioP2;P2;SDS_P1;SDS_P2;PMS_P1;PMS_P2;Temp;Humidity;BMP_temperature;BMP_pressure;BME280_temperature;BME280_humidity;BME280_pressure;Samples;Min_cycle;Max_cycle;Signal;HPM_P1;HPM_P2
2022/08/27 00:01:38;;;;;;;7.63;3.40;;;;;;;;;;5004349;28;20517;-73
2022/08/27 00:04:43;;;;;;;10.27;3.75;;;;;;;;;;5004314;28;20058;-73
2022/08/27 00:14:32;;;;;;;10.02;3.78;;;;;;;;;;4994729;28;20072;-73
2022/08/27 00:18:00;;;;;;;8.18;3.35;;;;;;;;;;5004010;28;20065;-73
2022/08/27 00:20:37;;;;;;;6.80;4.22;;;;;;;;;;5003576;28;20061;-72
2022/08/27 00:23:07;;;;;;;8.10;3.60;;;;;;;;;;5041878;28;20072;-71
2022/08/27 00:25:36;;;;;;;10.82;4.43;;;;;;;;;;5057414;28;20087;-72
2022/08/27 00:31:23;;;;;;;6.38;3.95;;;;;;;;;;5307030;24;20060;-73
2022/08/27 00:33:56;;;;;;;7.22;4.00;;;;;;;;;;4780592;29;20059;-74
2022/08/27 00:36:27;;;;;;;6.45;4.25;;;;;;;;;;4781305;29;20118;-73
2022/08/27 00:38:56;;;;;;;5.88;4.22;;;;;;;;;;4783312;29;20545;-73
2022/08/27 00:41:26;;;;;;;7.90;5.63;;;;;;;;;;4785357;30;20066;-73
2022/08/27 00:43:59;;;;;;;8.85;5.07;;;;;;;;;;4784887;29;20107;-72
2022/08/27 00:46:44;;;;;;;7.93;4.82;;;;;;;;;;4785154;30;20499;-72
2022/08/27 00:49:19;;;;;;;7.82;4.95;;;;;;;;;;4784576;29;20051;-72
2022/08/27 00:51:56;;;;;;;;;;;;;;;;;;4784925;30;20051;-72
2022/08/27 00:54:27;;;;;;;7.93;4.20;;;;;;;;;;4784395;30;19929;-72
2022/08/27 00:56:59;;;;;;;8.05;4.90;;;;;;;;;;4784414;29;20070;-71
2022/08/27 00:59:31;;;;;;;6.65;4.45;;;;;;;;;;4785683;30;20086;-73
2022/08/27 01:02:17;;;;;;;10.25;4.45;;;;;;;;;;4785206;30;20419;-72
2022/08/27 01:05:09;;;;;;;9.15;4.50;;;;;;;;;;4769599;30;20123;-73
2022/08/27 01:07:43;;;;;;;6.65;4.78;;;;;;;;;;4784779;30;20565;-72
2022/08/27 01:10:16;;;;;;;11.85;4.68;;;;;;;;;;4784923;29;20423;-72
2022/08/27 01:12:49;;;;;;;8.18;5.10;;;;;;;;;;4784367;30;20354;-73
2022/08/27 01:15:24;;;;;;;7.32;4.70;;;;;;;;;;4783846;30;20401;-73
2022/08/27 01:17:56;;;;;;;6.60;3.88;;;;;;;;;;4784328;30;20063;-72
2022/08/27 01:20:37;;;;;;;8.82;4.60;;;;;;;;;;4785059;29;20047;-72
2022/08/27 01:23:34;;;;;;;7.28;4.18;;;;;;;;;;4784621;30;20521;-72
2022/08/27 01:26:07;;;;;;;10.35;4.25;;;;;;;;;;4785133;30;20522;-72
2022/08/27 01:28:38;;;;;;;10.05;4.53;;;;;;;;;;4784342;29;20063;-73
2022/08/27 01:31:10;;;;;;;7.10;4.63;;;;;;;;;;4784607;29;20059;-72
2022/08/27 01:33:52;;;;;;;9.27;4.40;;;;;;;;;;4784507;30;20066;-72
2022/08/27 01:36:22;;;;;;;10.68;4.85;;;;;;;;;;4784412;30;20055;-72
2022/08/27 01:38:51;;;;;;;8.73;4.57;;;;;;;;;;4784218;30;20055;-73
2022/08/27 01:41:23;;;;;;;7.88;4.43;;;;;;;;;;4784576;30;20487;-72
2022/08/27 01:43:53;;;;;;;12.52;5.30;;;;;;;;;;4784736;29;20054;-73
2022/08/27 01:46:26;;;;;;;8.82;4.95;;;;;;;;;;4784618;29;20051;-72
2022/08/27 01:48:57;;;;;;;17.08;5.78;;;;;;;;;;4784359;29;20062;-73
2022/08/27 01:51:27;;;;;;;8.90;5.38;;;;;;;;;;4784537;30;20362;-72
2022/08/27 01:53:56;;;;;;;11.38;5.75;;;;;;;;;;4784328;30;20047;-73
2022/08/27 01:56:26;;;;;;;10.93;4.85;;;;;;;;;;4784246;30;20055;-72
2022/08/27 01:58:56;;;;;;;11.27;5.38;;;;;;;;;;4783942;29;20075;-71
2022/08/27 02:01:26;;;;;;;7.55;4.80;;;;;;;;;;4784347;30;20059;-73
2022/08/27 02:03:56;;;;;;;8.88;5.78;;;;;;;;;;4784141;30;20396;-72
2022/08/27 02:06:26;;;;;;;12.30;5.32;;;;;;;;;;4784018;30;20060;-72
2022/08/27 02:08:56;;;;;;;6.80;4.40;;;;;;;;;;4784044;30;20051;-72
2022/08/27 02:11:25;;;;;;;9.02;5.05;;;;;;;;;;4783123;30;20067;-72
2022/08/27 02:13:55;;;;;;;7.88;4.72;;;;;;;;;;4784223;29;20047;-73
2022/08/27 02:16:25;;;;;;;12.32;5.75;;;;;;;;;;4783833;29;20055;-71
2022/08/27 02:18:55;;;;;;;10.48;5.53;;;;;;;;;;4783849;29;20074;-73
2022/08/27 02:21:25;;;;;;;11.68;5.45;;;;;;;;;;4784044;30;20047;-72
2022/08/27 02:23:55;;;;;;;8.25;5.25;;;;;;;;;;4783623;29;20062;-73
2022/08/27 02:26:26;;;;;;;9.88;5.07;;;;;;;;;;4783965;30;20063;-72
2022/08/27 02:28:56;;;;;;;11.15;6.07;;;;;;;;;;4784391;29;20074;-73
2022/08/27 02:31:26;;;;;;;9.32;5.50;;;;;;;;;;4784214;29;20059;-72
2022/08/27 02:33:56;;;;;;;8.73;5.78;;;;;;;;;;4783450;30;20500;-72
2022/08/27 02:36:27;;;;;;;9.65;5.13;;;;;;;;;;4783781;30;20066;-72
2022/08/27 02:38:57;;;;;;;11.50;5.22;;;;;;;;;;4783934;30;20059;-73
2022/08/27 02:41:27;;;;;;;10.20;5.38;;;;;;;;;;4784151;30;20074;-72
2022/08/27 02:43:57;;;;;;;8.48;5.45;;;;;;;;;;4783435;30;20423;-73
2022/08/27 02:46:29;;;;;;;8.85;5.35;;;;;;;;;;4783372;29;20047;-72
2022/08/27 02:48:59;;;;;;;8.52;6.30;;;;;;;;;;4783455;30;20430;-72
2022/08/27 02:51:28;;;;;;;8.93;5.95;;;;;;;;;;4783298;29;20047;-72
2022/08/27 02:54:00;;;;;;;9.75;6.90;;;;;;;;;;4783601;29;20044;-73
2022/08/27 02:56:30;;;;;;;11.48;6.55;;;;;;;;;;4783111;29;20051;-73
2022/08/27 02:59:01;;;;;;;9.10;5.70;;;;;;;;;;4767175;30;20526;-72
2022/08/27 03:01:32;;;;;;;11.63;6.72;;;;;;;;;;4766671;30;20058;-71
2022/08/27 03:04:01;;;;;;;10.18;6.70;;;;;;;;;;4783705;29;20055;-72
2022/08/27 03:06:31;;;;;;;12.15;6.65;;;;;;;;;;4783199;30;20538;-73
2022/08/27 03:09:01;;;;;;;12.88;6.47;;;;;;;;;;4783086;29;20503;-73
2022/08/27 03:11:32;;;;;;;7.88;5.57;;;;;;;;;;4782973;30;20055;-72
2022/08/27 03:14:02;;;;;;;12.23;6.97;;;;;;;;;;4782523;30;20419;-72
2022/08/27 03:16:37;;;;;;;13.25;6.70;;;;;;;;;;4783004;30;20511;-72
2022/08/27 03:19:07;;;;;;;9.60;5.88;;;;;;;;;;4782598;30;20078;-72
2022/08/27 03:21:37;;;;;;;13.93;6.25;;;;;;;;;;4782848;30;20055;-72
2022/08/27 03:24:08;;;;;;;8.90;5.60;;;;;;;;;;4766562;30;20064;-72
2022/08/27 03:26:43;;;;;;;10.63;5.65;;;;;;;;;;4767000;30;20051;-72
2022/08/27 03:29:21;;;;;;;8.98;5.57;;;;;;;;;;4782564;30;20062;-73
2022/08/27 03:31:51;;;;;;;7.95;5.25;;;;;;;;;;4782295;29;20082;-73
2022/08/27 03:34:21;;;;;;;14.82;6.65;;;;;;;;;;4782738;30;20059;-72
2022/08/27 03:36:51;;;;;;;10.65;6.05;;;;;;;;;;4782292;30;20055;-72
2022/08/27 03:39:21;;;;;;;8.48;5.38;;;;;;;;;;4782704;30;20066;-72
2022/08/27 03:41:51;;;;;;;10.30;6.47;;;;;;;;;;4782554;30;20059;-72
2022/08/27 03:44:23;;;;;;;10.30;6.35;;;;;;;;;;4782580;30;20078;-73
2022/08/27 03:46:54;;;;;;;10.13;5.97;;;;;;;;;;4782281;30;20515;-72
2022/08/27 03:49:24;;;;;;;11.30;7.00;;;;;;;;;;4782525;30;20403;-73
2022/08/27 03:51:54;;;;;;;9.23;6.07;;;;;;;;;;4782523;30;20063;-72
2022/08/27 03:54:24;;;;;;;9.45;6.65;;;;;;;;;;4782231;30;20058;-73
2022/08/27 03:56:55;;;;;;;11.48;6.10;;;;;;;;;;4782071;29;20066;-72
2022/08/27 03:59:25;;;;;;;11.73;6.28;;;;;;;;;;4781968;30;20444;-71
2022/08/27 04:01:55;;;;;;;9.82;6.20;;;;;;;;;;4782275;30;20429;-72
2022/08/27 04:04:26;;;;;;;13.23;6.43;;;;;;;;;;4782264;29;20427;-72
2022/08/27 04:06:57;;;;;;;15.60;7.18;;;;;;;;;;4782409;30;20372;-72
2022/08/27 04:09:27;;;;;;;10.70;6.55;;;;;;;;;;4782204;30;20050;-72
2022/08/27 04:11:57;;;;;;;11.25;7.13;;;;;;;;;;4782197;29;20063;-71
2022/08/27 04:14:26;;;;;;;14.82;7.53;;;;;;;;;;4781812;30;20350;-72
2022/08/27 04:16:56;;;;;;;13.73;6.65;;;;;;;;;;4782168;30;20047;-72
2022/08/27 04:19:31;;;;;;;12.18;6.38;;;;;;;;;;4781809;30;20062;-72
2022/08/27 04:22:05;;;;;;;11.85;7.40;;;;;;;;;;4781842;29;20043;-72
2022/08/27 04:24:37;;;;;;;12.23;7.90;;;;;;;;;;4782338;30;20066;-72
2022/08/27 04:27:07;;;;;;;15.55;6.97;;;;;;;;;;4782142;30;20055;-72
2022/08/27 04:29:37;;;;;;;11.23;6.88;;;;;;;;;;4781896;30;20605;-72
2022/08/27 04:32:07;;;;;;;13.10;8.63;;;;;;;;;;4781539;29;20063;-72
2022/08/27 04:34:37;;;;;;;19.27;8.52;;;;;;;;;;4781753;30;20059;-71
2022/08/27 04:37:07;;;;;;;9.65;6.68;;;;;;;;;;4781821;29;20059;-72
2022/08/27 04:39:38;;;;;;;12.00;8.00;;;;;;;;;;4782154;30;20063;-71
2022/08/27 04:42:07;;;;;;;12.98;8.00;;;;;;;;;;4781958;30;20405;-72
2022/08/27 04:44:38;;;;;;;16.00;8.18;;;;;;;;;;4781970;29;20078;-71
2022/08/27 04:47:07;;;;;;;15.23;8.45;;;;;;;;;;4781611;29;20416;-71
2022/08/27 04:49:37;;;;;;;12.82;7.57;;;;;;;;;;4781393;30;20086;-72
2022/08/27 04:52:08;;;;;;;13.30;7.32;;;;;;;;;;4781316;29;20059;-72
2022/08/27 04:54:38;;;;;;;16.67;7.43;;;;;;;;;;4781179;30;20070;-71
2022/08/27 04:57:08;;;;;;;16.08;7.90;;;;;;;;;;4781528;29;20051;-72
2022/08/27 04:59:38;;;;;;;17.05;9.52;;;;;;;;;;4781310;30;20511;-72
2022/08/27 05:02:09;;;;;;;13.40;8.23;;;;;;;;;;4781838;30;20047;-72
2022/08/27 05:04:40;;;;;;;16.45;8.43;;;;;;;;;;4782398;30;20056;-72
2022/08/27 05:07:10;;;;;;;14.07;8.88;;;;;;;;;;4781772;30;20055;-72
2022/08/27 05:09:40;;;;;;;13.65;8.52;;;;;;;;;;4781331;30;20059;-72
2022/08/27 05:12:10;;;;;;;13.32;8.30;;;;;;;;;;4781449;30;20059;-70
2022/08/27 05:14:40;;;;;;;15.43;9.25;;;;;;;;;;4781311;29;20051;-72
2022/08/27 05:17:10;;;;;;;17.77;8.80;;;;;;;;;;4765746;30;20843;-72
2022/08/27 05:19:39;;;;;;;20.25;8.57;;;;;;;;;;4781192;30;20055;-72
2022/08/27 05:22:09;;;;;;;15.75;7.93;;;;;;;;;;4781692;30;20072;-71
2022/08/27 05:24:39;;;;;;;17.85;8.27;;;;;;;;;;4783378;29;20058;-71
2022/08/27 05:27:09;;;;;;;11.43;7.95;;;;;;;;;;4784947;29;20047;-72
2022/08/27 05:29:41;;;;;;;15.63;8.75;;;;;;;;;;4785140;30;20526;-72
2022/08/27 05:32:10;;;;;;;12.68;8.32;;;;;;;;;;4785494;29;20051;-74
2022/08/27 05:34:40;;;;;;;17.02;8.48;;;;;;;;;;4768730;30;20063;-72
2022/08/27 05:37:10;;;;;;;12.85;7.72;;;;;;;;;;4784436;30;20058;-71
2022/08/27 05:39:40;;;;;;;14.77;8.20;;;;;;;;;;4783935;29;20067;-71
2022/08/27 05:42:10;;;;;;;14.27;9.20;;;;;;;;;;4784211;30;20051;-72
2022/08/27 05:44:39;;;;;;;14.27;8.52;;;;;;;;;;4784170;30;20078;-71
2022/08/27 05:47:10;;;;;;;12.73;8.88;;;;;;;;;;4784942;29;20093;-72
2022/08/27 05:49:39;;;;;;;19.23;8.40;;;;;;;;;;4768190;30;20070;-72
2022/08/27 05:52:12;;;;;;;18.08;8.68;;;;;;;;;;4784624;29;20051;-71
2022/08/27 05:54:42;;;;;;;16.88;8.00;;;;;;;;;;4784335;30;20054;-72
2022/08/27 05:57:12;;;;;;;14.55;9.15;;;;;;;;;;4784163;29;20058;-72
2022/08/27 06:02:39;;;;;;;21.23;9.35;;;;;;;;;;4784244;29;20070;-72
2022/08/27 06:05:09;;;;;;;19.98;8.30;;;;;;;;;;4784037;30;20047;-71
2022/08/27 06:07:39;;;;;;;13.55;9.15;;;;;;;;;;4768069;30;20131;-72
2022/08/27 06:10:10;;;;;;;18.05;9.20;;;;;;;;;;4783970;30;20507;-71
2022/08/27 06:12:40;;;;;;;15.90;8.73;;;;;;;;;;4784372;30;20055;-72
2022/08/27 06:15:10;;;;;;;14.82;8.77;;;;;;;;;;4784414;29;20503;-72
2022/08/27 06:17:40;;;;;;;13.80;7.65;;;;;;;;;;4783587;30;20051;-71
2022/08/27 06:20:10;;;;;;;;;;;;;;;;;;4768406;30;20062;-72
2022/08/27 06:22:39;;;;;;;13.52;8.57;;;;;;;;;;4767506;30;19929;-71
2022/08/27 06:25:09;;;;;;;13.35;7.70;;;;;;;;;;4784212;29;20051;-71
2022/08/27 06:27:39;;;;;;;13.63;7.40;;;;;;;;;;4783200;29;20062;-72
2022/08/27 06:30:09;;;;;;;15.45;8.93;;;;;;;;;;4783775;30;20063;-72
2022/08/27 06:32:45;;;;;;;13.35;8.32;;;;;;;;;;4783794;29;20070;-71
2022/08/27 06:35:15;;;;;;;13.32;8.52;;;;;;;;;;4782304;29;20060;-72
2022/08/27 06:37:45;;;;;;;17.52;7.97;;;;;;;;;;4783630;30;20051;-72
2022/08/27 06:40:14;;;;;;;15.15;8.27;;;;;;;;;;4783555;30;20062;-72
2022/08/27 06:42:44;;;;;;;13.20;8.43;;;;;;;;;;4783775;30;20055;-71
2022/08/27 06:45:14;;;;;;;18.40;8.25;;;;;;;;;;4783343;29;20043;-71
2022/08/27 06:47:44;;;;;;;14.75;9.10;;;;;;;;;;4783171;30;20067;-71
2022/08/27 06:50:14;;;;;;;17.73;9.20;;;;;;;;;;4783351;30;20055;-72
2022/08/27 06:52:48;;;;;;;13.90;8.43;;;;;;;;;;4783080;29;20066;-72
2022/08/27 06:55:18;;;;;;;17.98;8.40;;;;;;;;;;4783877;30;20047;-71
2022/08/27 06:57:48;;;;;;;13.98;9.05;;;;;;;;;;4783633;29;20419;-71
2022/08/27 07:00:18;;;;;;;14.95;8.15;;;;;;;;;;4782740;29;20525;-72
2022/08/27 07:02:50;;;;;;;12.55;7.57;;;;;;;;;;4783689;30;20690;-72
2022/08/27 07:05:20;;;;;;;13.82;7.80;;;;;;;;;;4783475;30;20058;-72
2022/08/27 07:07:50;;;;;;;16.48;8.40;;;;;;;;;;4783056;30;20062;-72
2022/08/27 07:10:20;;;;;;;17.42;10.00;;;;;;;;;;4782922;29;20526;-72
2022/08/27 07:12:52;;;;;;;12.20;8.25;;;;;;;;;;4783256;30;20507;-72
2022/08/27 07:15:23;;;;;;;11.90;7.82;;;;;;;;;;4782875;30;20063;-72
2022/08/27 07:17:57;;;;;;;16.73;7.78;;;;;;;;;;4782664;30;20044;-72
2022/08/27 07:20:30;;;;;;;16.63;9.45;;;;;;;;;;4782298;30;20059;-71
2022/08/27 07:23:00;;;;;;;15.02;8.82;;;;;;;;;;4782502;30;20043;-72
2022/08/27 07:25:31;;;;;;;15.13;9.20;;;;;;;;;;4782916;30;20427;-72
2022/08/27 07:28:01;;;;;;;15.10;9.15;;;;;;;;;;4782736;30;20078;-72
2022/08/27 07:30:31;;;;;;;18.08;9.10;;;;;;;;;;4766391;29;20063;-71
2022/08/27 07:33:01;;;;;;;15.23;8.90;;;;;;;;;;4766825;30;20055;-71
2022/08/27 07:35:31;;;;;;;13.48;7.72;;;;;;;;;;4782642;30;20062;-73
2022/08/27 07:38:02;;;;;;;13.35;7.70;;;;;;;;;;4782142;30;20058;-71
2022/08/27 07:40:33;;;;;;;13.95;9.38;;;;;;;;;;4782375;30;20051;-72
2022/08/27 07:45:57;;;;;;;14.55;7.05;;;;;;;;;;4782570;30;20103;-72
2022/08/27 07:48:28;;;;;;;14.90;7.78;;;;;;;;;;4782521;30;20527;-72
2022/08/27 07:51:00;;;;;;;15.05;7.60;;;;;;;;;;4782179;29;20062;-71
2022/08/27 07:53:32;;;;;;;13.05;7.45;;;;;;;;;;4782260;30;20062;-72
2022/08/27 07:56:07;;;;;;;12.63;7.57;;;;;;;;;;4782362;30;20062;-71
2022/08/27 07:58:37;;;;;;;16.60;8.27;;;;;;;;;;4782447;29;20047;-72
2022/08/27 08:01:07;;;;;;;16.15;8.60;;;;;;;;;;4781205;30;20411;-71
2022/08/27 08:03:38;;;;;;;11.77;7.03;;;;;;;;;;4782326;29;20515;-71
2022/08/27 08:06:13;;;;;;;13.95;7.13;;;;;;;;;;4781992;30;20070;-71
2022/08/27 08:08:44;;;;;;;17.65;7.22;;;;;;;;;;4781790;30;20052;-72
2022/08/27 08:11:17;;;;;;;14.13;7.85;;;;;;;;;;4782315;29;20051;-72
2022/08/27 08:13:47;;;;;;;12.55;7.65;;;;;;;;;;4782771;30;20538;-71
2022/08/27 08:16:17;;;;;;;12.52;7.43;;;;;;;;;;4782373;30;20530;-71
2022/08/27 08:18:47;;;;;;;13.25;6.85;;;;;;;;;;4781932;30;20522;-72
2022/08/27 08:21:17;;;;;;;13.07;6.50;;;;;;;;;;4782449;30;20051;-71
2022/08/27 08:23:48;;;;;;;13.30;7.53;;;;;;;;;;4765404;30;20062;-72
2022/08/27 08:26:18;;;;;;;15.00;7.10;;;;;;;;;;4781497;29;20082;-71
2022/08/27 08:28:48;;;;;;;11.43;6.97;;;;;;;;;;4782100;30;20061;-72
2022/08/27 08:31:19;;;;;;;16.20;6.72;;;;;;;;;;4780995;29;20397;-72
2022/08/27 08:33:49;;;;;;;14.40;7.13;;;;;;;;;;4781688;30;20051;-72
2022/08/27 08:36:19;;;;;;;13.40;8.02;;;;;;;;;;4782544;30;20074;-72
2022/08/27 08:38:49;;;;;;;13.68;6.85;;;;;;;;;;4782295;30;20055;-72
2022/08/27 08:41:31;;;;;;;14.32;6.80;;;;;;;;;;4781669;29;20059;-72
2022/08/27 08:44:21;;;;;;;14.07;6.95;;;;;;;;;;4781595;30;20055;-71
2022/08/27 08:47:11;;;;;;;13.73;7.53;;;;;;;;;;4781565;30;20066;-71
2022/08/27 08:50:02;;;;;;;19.83;7.97;;;;;;;;;;4781458;30;20420;-71
2022/08/27 08:52:40;;;;;;;10.40;6.07;;;;;;;;;;4781323;30;20051;-72
2022/08/27 08:55:17;;;;;;;14.40;5.88;;;;;;;;;;4765777;30;20520;-72
2022/08/27 08:58:14;;;;;;;13.25;6.25;;;;;;;;;;4781560;29;20062;-72
2022/08/27 09:00:47;;;;;;;13.15;6.13;;;;;;;;;;4768469;30;20066;-71
2022/08/27 09:03:17;;;;;;;15.52;6.63;;;;;;;;;;4785661;30;20051;-72
2022/08/27 09:06:01;;;;;;;12.70;6.45;;;;;;;;;;4784651;30;20062;-72
2022/08/27 09:08:37;;;;;;;10.23;5.93;;;;;;;;;;4785298;30;20043;-72
2022/08/27 09:11:28;;;;;;;10.65;5.70;;;;;;;;;;4784829;30;20055;-72
2022/08/27 09:14:04;;;;;;;14.70;6.10;;;;;;;;;;4785064;29;20058;-72
2022/08/27 09:16:40;;;;;;;;;;;;;;;;;;4769442;30;20066;-72
2022/08/27 09:19:10;;;;;;;7.43;4.82;;;;;;;;;;4784862;30;19929;-71
2022/08/27 09:21:48;;;;;;;11.02;6.85;;;;;;;;;;4784708;30;20421;-72
2022/08/27 09:24:25;;;;;;;14.75;6.05;;;;;;;;;;4784824;30;20055;-72
2022/08/27 09:26:55;;;;;;;9.13;5.63;;;;;;;;;;4784893;30;20047;-74
2022/08/27 09:29:27;;;;;;;10.82;5.25;;;;;;;;;;4784914;30;20059;-71
2022/08/27 09:32:09;;;;;;;12.18;5.68;;;;;;;;;;4784041;29;20060;-71
2022/08/27 09:34:42;;;;;;;11.48;6.20;;;;;;;;;;4784553;30;20062;-72
2022/08/27 09:37:19;;;;;;;10.75;5.95;;;;;;;;;;4784239;29;20078;-72
2022/08/27 09:40:10;;;;;;;12.75;6.45;;;;;;;;;;4784444;29;20051;-71
2022/08/27 09:42:56;;;;;;;11.18;6.38;;;;;;;;;;4784240;29;20412;-71
2022/08/27 09:45:28;;;;;;;12.95;5.28;;;;;;;;;;4784508;29;20590;-72
2022/08/27 09:48:13;;;;;;;13.18;5.72;;;;;;;;;;4784784;30;20059;-72
2022/08/27 09:50:56;;;;;;;9.05;5.28;;;;;;;;;;4784592;30;20051;-72
2022/08/27 09:53:44;;;;;;;8.23;5.00;;;;;;;;;;4784509;30;20055;-71
2022/08/27 09:56:32;;;;;;;10.77;5.57;;;;;;;;;;4784136;30;20435;-71
2022/08/27 09:59:06;;;;;;;14.80;6.18;;;;;;;;;;4783870;29;20051;-72
2022/08/27 10:01:57;;;;;;;13.52;5.65;;;;;;;;;;4783745;30;20539;-71
2022/08/27 10:04:39;;;;;;;11.10;5.60;;;;;;;;;;4783859;29;20885;-71
2022/08/27 10:07:38;;;;;;;13.13;5.78;;;;;;;;;;4783956;30;20066;-72
2022/08/27 10:10:40;;;;;;;10.75;6.00;;;;;;;;;;4783458;29;20090;-72
2022/08/27 10:13:19;;;;;;;8.05;5.13;;;;;;;;;;4783261;30;20047;-72
2022/08/27 10:16:05;;;;;;;12.32;5.32;;;;;;;;;;4784209;30;20059;-73
2022/08/27 10:18:43;;;;;;;8.77;5.32;;;;;;;;;;4783957;30;20048;-72
2022/08/27 10:21:38;;;;;;;7.70;4.97;;;;;;;;;;4783774;29;20067;-73
2022/08/27 10:24:22;;;;;;;6.82;4.55;;;;;;;;;;4784066;30;20055;-71
2022/08/27 10:27:18;;;;;;;10.90;5.47;;;;;;;;;;4783986;30;20471;-71
2022/08/27 10:30:06;;;;;;;10.88;6.00;;;;;;;;;;4768101;30;20055;-72
2022/08/27 10:32:55;;;;;;;9.50;5.50;;;;;;;;;;4783468;29;20653;-72
2022/08/27 10:35:37;;;;;;;9.27;5.57;;;;;;;;;;4783539;29;20062;-73
2022/08/27 10:38:27;;;;;;;10.35;5.38;;;;;;;;;;4783588;30;20135;-72
2022/08/27 10:41:27;;;;;;;12.02;5.45;;;;;;;;;;4783188;29;20059;-72
2022/08/27 10:44:18;;;;;;;9.35;5.75;;;;;;;;;;4783472;30;20059;-72
2022/08/27 10:47:11;;;;;;;11.77;6.00;;;;;;;;;;4783225;29;20055;-73
2022/08/27 10:49:59;;;;;;;10.18;4.95;;;;;;;;;;4783268;30;20044;-78
2022/08/27 10:52:40;;;;;;;10.27;5.43;;;;;;;;;;4783525;30;20047;-72
2022/08/27 10:55:22;;;;;;;10.25;5.15;;;;;;;;;;4782877;30;20051;-73
2022/08/27 10:57:58;;;;;;;;;;;;;;;;;;4783647;30;20515;-72
2022/08/27 11:01:13;;;;;;;8.38;3.95;;;;;;;;;;4783339;30;19926;-73
2022/08/27 11:03:55;;;;;;;10.23;4.70;;;;;;;;;;4783300;30;20047;-72
2022/08/27 11:06:57;;;;;;;9.10;5.38;;;;;;;;;;4782754;30;20127;-73
2022/08/27 11:09:50;;;;;;;7.75;4.50;;;;;;;;;;4763013;30;20063;-73
2022/08/27 11:12:30;;;;;;;14.50;5.55;;;;;;;;;;4767374;30;20075;-72
2022/08/27 11:15:20;;;;;;;8.73;5.20;;;;;;;;;;4783155;30;20051;-73
2022/08/27 11:18:07;;;;;;;11.13;5.45;;;;;;;;;;4783114;30;20051;-72
2022/08/27 11:21:17;;;;;;;10.32;5.53;;;;;;;;;;4783028;29;20051;-73
2022/08/27 11:23:57;;;;;;;7.88;5.38;;;;;;;;;;4767224;30;20062;-76
2022/08/27 11:26:32;;;;;;;9.98;5.32;;;;;;;;;;4782673;30;20119;-73
2022/08/27 11:29:13;;;;;;;7.50;4.40;;;;;;;;;;4782666;30;20070;-72
2022/08/27 11:31:52;;;;;;;7.22;5.28;;;;;;;;;;4781637;29;20443;-72
2022/08/27 11:34:25;;;;;;;9.63;5.00;;;;;;;;;;4783039;30;20411;-73
2022/08/27 11:37:10;;;;;;;8.10;4.90;;;;;;;;;;4783765;30;20504;-72
2022/08/27 11:39:59;;;;;;;7.85;4.55;;;;;;;;;;4782605;30;20048;-73
2022/08/27 11:42:40;;;;;;;9.85;4.65;;;;;;;;;;4782266;30;20062;-74
2022/08/27 11:45:29;;;;;;;12.77;5.88;;;;;;;;;;4783133;30;20062;-72
2022/08/27 11:48:21;;;;;;;8.45;4.68;;;;;;;;;;4782182;30;20074;-73
2022/08/27 11:51:02;;;;;;;8.05;4.53;;;;;;;;;;4782399;30;20047;-82
2022/08/27 11:53:35;;;;;;;6.78;4.65;;;;;;;;;;4782196;29;20054;-73
2022/08/27 11:56:42;;;;;;;7.20;5.07;;;;;;;;;;4782337;29;20051;-73
2022/08/27 11:59:32;;;;;;;9.95;5.20;;;;;;;;;;4782264;30;20055;-74
2022/08/27 12:02:31;;;;;;;9.45;5.18;;;;;;;;;;4782111;30;20066;-76
2022/08/27 12:05:19;;;;;;;16.38;5.63;;;;;;;;;;4774988;29;20512;-73
2022/08/27 12:07:54;;;;;;;10.65;5.22;;;;;;;;;;4782141;29;20054;-75
2022/08/27 12:10:50;;;;;;;12.95;6.97;;;;;;;;;;4781915;30;20404;-73
2022/08/27 12:13:25;;;;;;;11.10;4.93;;;;;;;;;;4781824;29;20051;-72
2022/08/27 12:16:02;;;;;;;8.88;4.93;;;;;;;;;;4782313;30;21180;-73
2022/08/27 12:18:50;;;;;;;13.32;4.80;;;;;;;;;;4781797;30;20051;-74
2022/08/27 12:21:48;;;;;;;7.40;4.43;;;;;;;;;;4781926;29;20059;-74
2022/08/27 12:24:48;;;;;;;15.13;6.20;;;;;;;;;;4781960;30;20056;-76
2022/08/27 12:27:23;;;;;;;12.60;5.15;;;;;;;;;;4781841;29;20429;-74
2022/08/27 12:29:53;;;;;;;16.00;5.93;;;;;;;;;;4782124;30;20392;-73
2022/08/27 12:32:33;;;;;;;9.25;4.70;;;;;;;;;;4781803;29;20067;-75
2022/08/27 12:35:14;;;;;;;10.48;4.97;;;;;;;;;;4781611;30;20411;-73
2022/08/27 12:37:49;;;;;;;12.88;5.00;;;;;;;;;;4781898;29;20062;-73
2022/08/27 12:40:27;;;;;;;22.38;5.43;;;;;;;;;;4781889;30;20054;-73
2022/08/27 12:43:06;;;;;;;9.05;4.28;;;;;;;;;;4782058;30;20062;-75
2022/08/27 12:45:48;;;;;;;10.07;5.40;;;;;;;;;;4781435;30;20051;-75
2022/08/27 12:48:23;;;;;;;7.68;4.35;;;;;;;;;;4781460;30;20074;-73
2022/08/27 12:50:57;;;;;;;13.85;4.68;;;;;;;;;;4781413;29;20491;-74
2022/08/27 12:53:42;;;;;;;12.82;3.97;;;;;;;;;;4781774;30;20078;-74
2022/08/27 12:56:39;;;;;;;6.97;4.00;;;;;;;;;;4781816;30;20066;-74
2022/08/27 12:59:32;;;;;;;7.10;4.47;;;;;;;;;;4781887;30;20051;-74
2022/08/27 13:02:04;;;;;;;12.02;4.88;;;;;;;;;;4764909;30;20056;-74
2022/08/27 13:04:38;;;;;;;8.80;4.20;;;;;;;;;;4781186;30;20530;-77
2022/08/27 13:07:09;;;;;;;8.07;4.22;;;;;;;;;;4781539;29;20055;-77
2022/08/27 13:09:39;;;;;;;6.18;4.15;;;;;;;;;;4780576;29;20063;-75
2022/08/27 13:12:18;;;;;;;8.52;4.10;;;;;;;;;;4780776;29;20526;-74
2022/08/27 13:14:48;;;;;;;10.57;4.70;;;;;;;;;;4780971;30;20059;-76
2022/08/27 13:17:26;;;;;;;13.77;4.72;;;;;;;;;;4781383;30;20052;-79
2022/08/27 13:19:58;;;;;;;10.65;4.43;;;;;;;;;;4780885;30;20523;-74
2022/08/27 13:22:37;;;;;;;10.70;4.10;;;;;;;;;;4781779;30;20051;-74
2022/08/27 13:25:23;;;;;;;8.13;4.20;;;;;;;;;;4781524;30;20508;-78
2022/08/27 13:28:09;;;;;;;6.25;4.10;;;;;;;;;;4781536;29;20051;-73
2022/08/27 13:30:43;;;;;;;5.75;4.13;;;;;;;;;;4780753;29;20642;-75
2022/08/27 13:33:29;;;;;;;20.58;5.65;;;;;;;;;;4781260;30;20636;-74
2022/08/27 13:35:59;;;;;;;8.00;4.10;;;;;;;;;;4781319;29;20051;-74
2022/08/27 13:38:35;;;;;;;6.15;4.22;;;;;;;;;;4781598;30;20423;-74
2022/08/27 13:41:11;;;;;;;9.93;4.30;;;;;;;;;;4764815;30;20574;-79
2022/08/27 13:43:44;;;;;;;7.32;4.10;;;;;;;;;;4764755;30;20062;-75
2022/08/27 13:46:19;;;;;;;6.80;4.13;;;;;;;;;;4783806;29;20078;-77
2022/08/27 13:48:53;;;;;;;7.13;4.03;;;;;;;;;;4784936;29;20055;-76
2022/08/27 13:51:32;;;;;;;6.95;4.03;;;;;;;;;;4784553;30;20512;-78
2022/08/27 13:54:11;;;;;;;8.75;4.07;;;;;;;;;;4783615;29;20059;-75
2022/08/27 13:56:49;;;;;;;6.38;3.60;;;;;;;;;;4768381;30;20066;-74
2022/08/27 13:59:20;;;;;;;10.65;3.75;;;;;;;;;;4783892;29;20054;-73
2022/08/27 14:02:00;;;;;;;5.00;3.50;;;;;;;;;;4784170;29;20063;-74
2022/08/27 14:04:41;;;;;;;7.18;3.60;;;;;;;;;;4783901;29;20055;-73
2022/08/27 14:07:14;;;;;;;4.35;3.40;;;;;;;;;;4783853;29;20047;-72
2022/08/27 14:09:49;;;;;;;5.20;3.13;;;;;;;;;;4784788;30;20055;-73
2022/08/27 14:12:34;;;;;;;5.82;3.40;;;;;;;;;;4784185;29;20174;-75
2022/08/27 14:15:22;;;;;;;4.00;2.83;;;;;;;;;;4784814;29;20396;-76
2022/08/27 14:17:53;;;;;;;4.22;2.92;;;;;;;;;;4784728;29;20078;-79
2022/08/27 14:20:23;;;;;;;3.85;2.70;;;;;;;;;;4783912;29;20055;-75
2022/08/27 14:22:54;;;;;;;5.47;2.92;;;;;;;;;;4783628;29;20055;-73
2022/08/27 14:25:24;;;;;;;6.97;3.30;;;;;;;;;;4783299;29;20493;-74
2022/08/27 14:27:56;;;;;;;10.98;4.47;;;;;;;;;;4783210;30;20066;-77
2022/08/27 14:30:26;;;;;;;3.97;3.08;;;;;;;;;;4784024;29;20047;-75
2022/08/27 14:33:00;;;;;;;5.63;3.53;;;;;;;;;;4783436;29;20380;-76
2022/08/27 14:35:32;;;;;;;6.65;3.15;;;;;;;;;;4784316;30;20051;-75
2022/08/27 14:38:13;;;;;;;13.05;6.25;;;;;;;;;;4768352;30;20078;-77
2022/08/27 14:40:44;;;;;;;9.32;2.72;;;;;;;;;;4783781;30;20070;-76
2022/08/27 14:43:14;;;;;;;7.88;3.45;;;;;;;;;;4767567;30;20051;-75
2022/08/27 14:45:48;;;;;;;6.78;4.35;;;;;;;;;;4767700;29;20060;-75
2022/08/27 14:48:24;;;;;;;4.30;3.05;;;;;;;;;;4783419;29;20082;-75
2022/08/27 14:50:57;;;;;;;6.88;3.33;;;;;;;;;;4783465;30;20412;-76
2022/08/27 14:53:29;;;;;;;6.20;3.40;;;;;;;;;;4783669;30;20051;-76
2022/08/27 14:56:00;;;;;;;6.75;3.35;;;;;;;;;;4782089;29;20059;-77
2022/08/27 14:58:31;;;;;;;6.30;2.80;;;;;;;;;;4783355;30;20047;-76
2022/08/27 15:01:03;;;;;;;6.00;3.17;;;;;;;;;;4783286;29;20054;-77
2022/08/27 15:03:37;;;;;;;4.28;3.03;;;;;;;;;;4783409;29;20070;-76
2022/08/27 15:06:08;;;;;;;3.50;2.80;;;;;;;;;;4783372;30;20066;-74
2022/08/27 15:08:38;;;;;;;5.95;3.50;;;;;;;;;;4783822;30;20067;-76
2022/08/27 15:11:22;;;;;;;4.75;2.80;;;;;;;;;;4783743;30;20488;-76
2022/08/27 15:13:53;;;;;;;3.10;2.50;;;;;;;;;;4783292;29;20055;-77
2022/08/27 15:16:35;;;;;;;5.32;2.88;;;;;;;;;;4783159;29;20058;-75
2022/08/27 15:19:09;;;;;;;6.43;2.95;;;;;;;;;;4783882;29;20054;-76
2022/08/27 15:21:40;;;;;;;4.68;2.63;;;;;;;;;;4783603;29;20055;-75
2022/08/27 15:24:27;;;;;;;3.95;2.92;;;;;;;;;;4783769;29;20059;-75
2022/08/27 15:26:57;;;;;;;5.40;2.88;;;;;;;;;;4783028;29;20054;-77
2022/08/27 15:29:27;;;;;;;5.00;2.92;;;;;;;;;;4783333;29;20050;-75
2022/08/27 15:31:57;;;;;;;4.50;3.22;;;;;;;;;;4767293;30;20059;-77
2022/08/27 15:34:26;;;;;;;5.28;3.10;;;;;;;;;;4783347;29;20047;-76
2022/08/27 15:36:56;;;;;;;5.93;3.33;;;;;;;;;;4784019;29;20055;-76
2022/08/27 15:39:26;;;;;;;4.13;2.75;;;;;;;;;;4766450;30;20055;-77
2022/08/27 15:41:59;;;;;;;3.97;2.60;;;;;;;;;;4782614;29;20136;-75